createdAt,value
2023-11-23T00:00:10.612Z,16.57
2023-11-23T00:02:37.710Z,15.30
2023-11-23T00:05:05.347Z,17.13
2023-11-23T00:07:33.065Z,16.53
2023-11-23T00:10:00.013Z,16.97
2023-11-23T00:12:26.499Z,16.17
2023-11-23T00:14:53.076Z,16.33
2023-11-23T00:17:19.869Z,16.63
2023-11-23T00:19:49.671Z,16.77
2023-11-23T00:22:16.587Z,16.77
2023-11-23T00:24:43.262Z,17.60
2023-11-23T00:27:09.978Z,17.43
2023-11-23T00:29:36.526Z,18.40
2023-11-23T00:32:03.398Z,19.13
2023-11-23T00:34:29.918Z,19.50
2023-11-23T00:36:57.117Z,18.73
2023-11-23T00:39:23.623Z,19.43
2023-11-23T00:41:50.426Z,19.37
2023-11-23T00:44:18.152Z,19.10
2023-11-23T00:46:44.742Z,20.60
2023-11-23T00:49:11.929Z,19.40
2023-11-23T00:51:38.377Z,20.10
2023-11-23T00:54:07.777Z,20.40
2023-11-23T00:56:34.203Z,19.40
2023-11-23T00:59:15.962Z,18.37
2023-11-23T01:01:42.586Z,19.50
2023-11-23T01:04:09.388Z,18.53
2023-11-23T01:06:35.934Z,17.63
2023-11-23T01:09:02.452Z,17.77
2023-11-23T01:11:29.702Z,18.13
2023-11-23T01:13:56.265Z,16.60
2023-11-23T01:16:22.644Z,17.77
2023-11-23T01:18:49.096Z,17.20
2023-11-23T01:21:15.589Z,15.40
2023-11-23T01:23:42.055Z,15.07
2023-11-23T01:26:08.474Z,15.50
2023-11-23T01:28:35.289Z,13.73
2023-11-23T01:31:01.652Z,14.53
2023-11-23T01:33:28.112Z,12.63
2023-11-23T01:35:54.723Z,12.00
2023-11-23T01:38:21.779Z,13.07
2023-11-23T01:40:48.170Z,12.43
2023-11-23T01:43:14.674Z,12.13
2023-11-23T01:45:41.111Z,11.80
2023-11-23T01:48:07.755Z,12.67
2023-11-23T01:50:34.956Z,12.93
2023-11-23T01:53:02.452Z,12.87
2023-11-23T01:55:41.355Z,11.57
2023-11-23T01:58:09.752Z,12.53
2023-11-23T02:00:37.930Z,12.37
2023-11-23T02:03:05.536Z,12.00
2023-11-23T02:05:32.052Z,12.40
2023-11-23T02:07:58.486Z,13.23
2023-11-23T02:10:24.966Z,13.37
2023-11-23T02:12:51.645Z,13.03
2023-11-23T02:15:19.984Z,13.90
2023-11-23T02:17:47.165Z,13.83
2023-11-23T02:20:14.943Z,14.43
2023-11-23T02:22:41.449Z,14.10
2023-11-23T02:25:08.318Z,14.60
2023-11-23T02:27:37.844Z,14.70
2023-11-23T02:30:07.009Z,14.63
2023-11-23T02:32:33.698Z,12.97
2023-11-23T02:35:00.284Z,14.60
2023-11-23T02:37:26.825Z,15.80
2023-11-23T02:39:53.212Z,14.63
2023-11-23T02:42:19.633Z,14.77
2023-11-23T02:44:46.067Z,13.73
2023-11-23T02:47:12.466Z,13.57
2023-11-23T02:49:38.837Z,14.20
2023-11-23T02:52:06.103Z,13.50
2023-11-23T02:54:32.638Z,14.47
2023-11-23T02:56:59.084Z,12.47
2023-11-23T02:59:25.505Z,14.07
2023-11-23T03:01:52.030Z,14.33
2023-11-23T03:04:18.520Z,12.70
2023-11-23T03:06:45.041Z,11.37
2023-11-23T03:09:12.076Z,12.20
2023-11-23T03:11:38.512Z,11.80
2023-11-23T03:14:05.125Z,10.70
2023-11-23T03:16:31.810Z,9.93
2023-11-23T03:19:01.300Z,8.80
2023-11-23T03:21:27.765Z,9.23
2023-11-23T03:23:54.294Z,8.77
2023-11-23T03:26:20.685Z,8.67
2023-11-23T03:28:47.068Z,8.30
2023-11-23T03:31:13.606Z,7.40
2023-11-23T03:33:40.058Z,7.77
2023-11-23T03:36:06.996Z,7.23
2023-11-23T03:38:34.300Z,8.83
2023-11-23T03:41:01.267Z,6.37
2023-11-23T03:43:27.788Z,6.53
2023-11-23T03:45:55.666Z,6.90
2023-11-23T03:48:23.083Z,6.17
2023-11-23T03:50:49.606Z,6.77
2023-11-23T03:53:16.013Z,5.40
2023-11-23T03:55:42.561Z,5.90
2023-11-23T03:58:09.025Z,5.43
2023-11-23T04:00:35.950Z,6.13
2023-11-23T04:03:03.437Z,5.33
2023-11-23T04:05:30.271Z,5.20
2023-11-23T04:07:56.676Z,4.20
2023-11-23T04:10:23.167Z,4.40
2023-11-23T04:12:51.806Z,4.20
2023-11-23T04:15:18.668Z,4.67
2023-11-23T04:17:45.399Z,3.63
2023-11-23T04:20:12.041Z,4.10
2023-11-23T04:22:38.557Z,3.80
2023-11-23T04:25:05.496Z,4.10
2023-11-23T04:27:31.919Z,4.20
2023-11-23T04:29:59.883Z,4.10
2023-11-23T04:32:27.610Z,3.83
2023-11-23T04:34:54.047Z,4.57
2023-11-23T04:37:25.089Z,4.10
2023-11-23T04:39:52.553Z,4.57
2023-11-23T04:42:19.625Z,4.27
2023-11-23T04:44:46.925Z,4.73
2023-11-23T04:47:13.923Z,4.37
2023-11-23T04:49:40.525Z,4.40
2023-11-23T04:52:08.766Z,4.17
2023-11-23T04:54:42.131Z,4.30
2023-11-23T04:57:08.604Z,4.87
2023-11-23T04:59:34.970Z,5.03
2023-11-23T05:02:01.659Z,5.37
2023-11-23T05:04:28.182Z,4.53
2023-11-23T05:06:56.960Z,5.37
2023-11-23T05:09:23.957Z,5.67
2023-11-23T05:11:50.443Z,4.47
2023-11-23T05:14:18.142Z,5.90
2023-11-23T05:16:44.708Z,5.70
2023-11-23T05:19:11.107Z,5.70
2023-11-23T05:21:38.134Z,5.80
2023-11-23T05:24:05.758Z,5.57
2023-11-23T05:26:32.386Z,5.93
2023-11-23T05:28:58.733Z,6.33
2023-11-23T05:31:30.333Z,5.97
2023-11-23T05:33:56.825Z,4.87
2023-11-23T05:36:23.604Z,5.60
2023-11-23T05:38:50.108Z,6.43
2023-11-23T05:41:16.551Z,5.97
2023-11-23T05:43:43.068Z,5.67
2023-11-23T05:46:11.779Z,5.70
2023-11-23T05:48:39.595Z,6.93
2023-11-23T05:51:06.125Z,6.47
2023-11-23T05:53:32.929Z,6.03
2023-11-23T05:55:59.385Z,5.30
2023-11-23T05:58:25.920Z,5.77
2023-11-23T06:01:03.058Z,7.40
2023-11-23T06:03:36.702Z,6.63
2023-11-23T06:06:03.398Z,5.83
2023-11-23T06:08:29.863Z,5.00
2023-11-23T06:10:56.193Z,5.67
2023-11-23T06:13:29.578Z,6.43
2023-11-23T06:15:55.987Z,5.50
2023-11-23T06:18:22.668Z,6.60
2023-11-23T06:20:49.322Z,6.17
2023-11-23T06:23:15.695Z,6.40
2023-11-23T06:25:42.111Z,5.53
2023-11-23T06:28:14.939Z,5.93
2023-11-23T06:30:44.251Z,5.53
2023-11-23T06:33:10.804Z,5.90
2023-11-23T06:35:37.247Z,5.97
2023-11-23T06:38:04.417Z,6.07
2023-11-23T06:40:30.945Z,6.33
2023-11-23T06:42:57.328Z,6.47
2023-11-23T06:45:23.899Z,6.20
2023-11-23T06:47:50.364Z,6.77
2023-11-23T06:50:16.894Z,6.40
2023-11-23T06:52:43.445Z,6.27
2023-11-23T06:55:10.595Z,7.83
2023-11-23T06:57:40.932Z,6.00
2023-11-23T07:00:17.577Z,5.87
2023-11-23T07:02:44.145Z,5.40
2023-11-23T07:05:11.924Z,6.10
2023-11-23T07:07:39.506Z,5.90
2023-11-23T07:10:07.425Z,6.83
2023-11-23T07:12:33.839Z,7.37
2023-11-23T07:15:00.359Z,6.30
2023-11-23T07:17:26.886Z,5.53
2023-11-23T07:19:53.408Z,6.10
2023-11-23T07:22:19.857Z,6.80
2023-11-23T07:24:46.318Z,6.47
2023-11-23T07:27:12.795Z,6.43
2023-11-23T07:29:39.257Z,7.10
2023-11-23T07:32:06.421Z,6.63
2023-11-23T07:34:32.792Z,6.20
2023-11-23T07:36:59.189Z,6.63
2023-11-23T07:39:25.745Z,6.07
2023-11-23T07:41:53.082Z,6.07
2023-11-23T07:44:22.024Z,6.50
2023-11-23T07:46:48.487Z,5.90
2023-11-23T07:49:15.106Z,6.20
2023-11-23T07:51:41.542Z,6.70
2023-11-23T07:54:08.024Z,6.07
2023-11-23T07:56:34.443Z,6.17
2023-11-23T07:59:00.880Z,5.03
2023-11-23T08:01:27.744Z,6.30
2023-11-23T08:03:54.391Z,6.70
2023-11-23T08:06:21.248Z,7.27
2023-11-23T08:08:48.595Z,6.00
2023-11-23T08:11:17.147Z,6.20
2023-11-23T08:13:43.566Z,5.20
2023-11-23T08:16:09.993Z,5.50
2023-11-23T08:18:43.092Z,5.97
2023-11-23T08:21:13.680Z,5.70
2023-11-23T08:23:40.298Z,5.90
2023-11-23T08:26:12.196Z,5.50
2023-11-23T08:28:44.388Z,6.07
2023-11-23T08:31:11.201Z,6.50
2023-11-23T08:33:38.494Z,6.77
2023-11-23T08:36:05.470Z,6.47
2023-11-23T08:38:31.851Z,6.40
2023-11-23T08:40:58.328Z,5.07
2023-11-23T08:43:27.795Z,6.10
2023-11-23T08:45:54.309Z,6.27
2023-11-23T08:48:25.703Z,5.47
2023-11-23T08:50:52.265Z,5.63
2023-11-23T08:53:21.461Z,6.20
2023-11-23T08:55:49.700Z,6.30
2023-11-23T08:58:24.161Z,6.77
2023-11-23T09:00:50.925Z,6.13
2023-11-23T09:03:18.526Z,5.43
2023-11-23T09:05:50.850Z,6.17
2023-11-23T09:08:17.247Z,6.10
2023-11-23T09:10:45.214Z,6.07
2023-11-23T09:13:18.500Z,5.57
2023-11-23T09:15:45.119Z,5.50
2023-11-23T09:18:11.975Z,6.27
2023-11-23T09:20:38.487Z,6.00
2023-11-23T09:23:04.950Z,6.40
2023-11-23T09:25:36.095Z,5.67
2023-11-23T09:28:02.658Z,5.40
2023-11-23T09:30:29.264Z,5.87
2023-11-23T09:32:58.237Z,8.13
2023-11-23T09:35:24.941Z,7.10
2023-11-23T09:37:54.390Z,5.70
2023-11-23T09:40:27.269Z,6.33
2023-11-23T09:42:53.653Z,6.07
2023-11-23T09:45:26.856Z,5.67
2023-11-23T09:48:52.797Z,6.97
2023-11-23T09:51:24.016Z,5.80
2023-11-23T09:57:25.618Z,7.03
2023-11-23T09:59:54.952Z,6.07
2023-11-23T10:02:25.148Z,6.27
2023-11-23T10:04:53.700Z,6.23
2023-11-23T10:07:21.234Z,6.00
2023-11-23T10:09:47.711Z,6.97
2023-11-23T10:12:17.225Z,5.37
2023-11-23T10:14:46.785Z,7.47
2023-11-23T10:17:22.398Z,6.50
2023-11-23T10:19:53.317Z,6.00
2023-11-23T10:22:19.708Z,5.60
2023-11-23T10:24:49.685Z,5.30
2023-11-23T10:27:17.568Z,5.87
2023-11-23T10:29:44.024Z,5.90
2023-11-23T10:32:11.073Z,5.93
2023-11-23T10:34:41.780Z,5.83
2023-11-23T10:37:09.167Z,5.73
2023-11-23T10:39:35.789Z,5.90
2023-11-23T10:42:04.330Z,6.57
2023-11-23T10:44:33.202Z,5.97
2023-11-23T10:47:04.570Z,7.90
2023-11-23T10:49:36.369Z,5.77
2023-11-23T10:52:04.346Z,6.27
2023-11-23T10:54:30.804Z,5.80
2023-11-23T10:56:59.014Z,6.37
2023-11-23T10:59:25.453Z,6.33
2023-11-23T11:01:54.369Z,6.90
2023-11-23T11:04:20.800Z,7.13
2023-11-23T11:06:48.723Z,5.93
2023-11-23T11:09:17.041Z,7.27
2023-11-23T11:11:56.959Z,6.53
2023-11-23T11:14:34.316Z,6.30
2023-11-23T11:17:07.691Z,7.90
2023-11-23T11:19:44.761Z,9.13
2023-11-23T11:22:15.241Z,7.10
2023-11-23T11:24:42.537Z,6.93
2023-11-23T11:27:13.496Z,6.30
2023-11-23T11:29:51.339Z,6.20
2023-11-23T11:32:18.961Z,6.50
2023-11-23T11:34:45.337Z,9.70
2023-11-23T11:37:12.378Z,6.60
2023-11-23T11:39:40.548Z,6.17
2023-11-23T11:42:08.218Z,6.43
2023-11-23T11:44:35.593Z,6.70
2023-11-23T11:47:02.570Z,6.07
2023-11-23T11:49:29.227Z,5.93
2023-11-23T11:51:55.632Z,6.70
2023-11-23T11:54:24.048Z,7.23
2023-11-23T11:56:50.913Z,6.53
2023-11-23T11:59:18.547Z,6.27
2023-11-23T12:01:45.125Z,7.87
2023-11-23T12:04:16.524Z,6.53
2023-11-23T12:06:46.057Z,5.83
2023-11-23T12:09:27.885Z,5.97
2023-11-23T12:12:11.232Z,5.37
2023-11-23T12:14:37.922Z,6.13
2023-11-23T12:17:11.473Z,5.40
2023-11-23T12:19:38.731Z,6.27
2023-11-23T12:22:05.119Z,7.13
2023-11-23T12:24:31.861Z,5.50
2023-11-23T12:26:58.509Z,6.27
2023-11-23T12:29:26.835Z,11.23
2023-11-23T12:31:53.471Z,5.90
2023-11-23T12:34:24.248Z,5.83
2023-11-23T12:36:50.727Z,7.20
2023-11-23T12:39:17.191Z,5.30
2023-11-23T12:41:52.787Z,5.17
2023-11-23T12:44:21.938Z,5.53
2023-11-23T12:46:48.501Z,5.00
2023-11-23T12:49:18.672Z,5.10
2023-11-23T12:51:45.734Z,5.30
2023-11-23T12:54:12.238Z,3.37
2023-11-23T12:56:39.146Z,5.23
2023-11-23T12:59:08.487Z,4.40
2023-11-23T13:01:40.364Z,4.70
2023-11-23T13:04:09.094Z,4.53
2023-11-23T13:06:36.562Z,4.40
2023-11-23T13:09:04.757Z,4.10
2023-11-23T13:11:31.220Z,4.13
2023-11-23T13:13:57.732Z,3.90
2023-11-23T13:16:24.912Z,3.87
2023-11-23T13:19:06.264Z,6.33
2023-11-23T13:21:39.545Z,4.27
2023-11-23T13:24:07.816Z,4.73
2023-11-23T13:26:34.559Z,5.10
2023-11-23T13:29:01.188Z,5.17
2023-11-23T13:31:28.647Z,5.87
2023-11-23T13:33:55.376Z,4.63
2023-11-23T13:36:21.825Z,6.03
2023-11-23T13:38:50.270Z,5.60
2023-11-23T13:41:16.897Z,5.67
2023-11-23T13:43:43.809Z,6.80
2023-11-23T13:46:10.510Z,6.10
2023-11-23T13:48:37.061Z,6.00
2023-11-23T13:51:04.787Z,5.00
2023-11-23T13:53:31.209Z,5.77
2023-11-23T13:55:57.969Z,6.70
2023-11-23T13:58:26.936Z,4.50
2023-11-23T14:00:53.602Z,5.33
2023-11-23T14:03:20.069Z,5.37
2023-11-23T14:05:47.176Z,5.30
2023-11-23T14:08:15.212Z,5.87
2023-11-23T14:10:49.676Z,6.40
2023-11-23T14:13:16.804Z,5.17
2023-11-23T14:15:43.338Z,5.67
2023-11-23T14:18:11.747Z,5.77
2023-11-23T14:20:38.867Z,7.00
2023-11-23T14:23:06.735Z,5.90
2023-11-23T14:25:33.117Z,6.00
2023-11-23T14:28:00.293Z,6.10
2023-11-23T14:30:28.503Z,4.97
2023-11-23T14:32:55.047Z,4.77
2023-11-23T14:35:22.571Z,5.17
2023-11-23T14:37:51.085Z,5.57
2023-11-23T14:40:20.111Z,12.00
2023-11-23T14:42:56.283Z,6.97
2023-11-23T14:45:25.289Z,6.23
2023-11-23T14:47:53.505Z,8.83
2023-11-23T14:50:20.968Z,6.97
2023-11-23T14:52:47.528Z,5.57
2023-11-23T14:55:16.840Z,6.50
2023-11-23T14:57:43.305Z,10.20
2023-11-23T15:00:10.713Z,9.40
2023-11-23T15:02:40.750Z,7.07
2023-11-23T15:05:09.064Z,8.73
2023-11-23T15:07:35.403Z,5.53
2023-11-23T15:10:03.696Z,7.00
2023-11-23T15:12:30.099Z,4.60
2023-11-23T15:14:57.384Z,4.77
2023-11-23T15:17:26.920Z,3.97
2023-11-23T15:19:53.672Z,2.20
2023-11-23T15:22:21.899Z,4.00
2023-11-23T15:24:57.527Z,2.20
2023-11-23T15:27:30.559Z,2.10
2023-11-23T15:29:58.906Z,3.97
2023-11-23T15:32:28.605Z,2.83
2023-11-23T15:34:57.260Z,9.03
2023-11-23T15:37:24.646Z,4.30
2023-11-23T15:39:51.164Z,13.20
2023-11-23T15:42:17.799Z,9.67
2023-11-23T15:44:44.332Z,12.17
2023-11-23T15:47:13.176Z,2.13
2023-11-23T15:49:39.602Z,2.40
2023-11-23T15:52:07.338Z,2.83
2023-11-23T15:54:34.441Z,1.97
2023-11-23T15:57:01.400Z,3.67
2023-11-23T15:59:28.165Z,10.60
2023-11-23T16:01:54.716Z,7.63
2023-11-23T16:04:22.191Z,3.87
2023-11-23T16:06:49.240Z,2.97
2023-11-23T16:09:16.884Z,3.40
2023-11-23T16:11:45.522Z,2.60
2023-11-23T16:14:12.851Z,5.93
2023-11-23T16:16:39.522Z,2.73
2023-11-23T16:19:06.348Z,3.00
2023-11-23T16:21:32.729Z,5.30
2023-11-23T16:23:59.202Z,4.70
2023-11-23T16:26:26.111Z,5.73
2023-11-23T16:28:52.853Z,4.83
2023-11-23T16:31:19.229Z,4.30
2023-11-23T16:33:45.650Z,12.13
2023-11-23T16:36:26.480Z,2.73
2023-11-23T16:39:00.727Z,8.50
2023-11-23T16:41:28.773Z,3.30
2023-11-23T16:43:55.174Z,3.50
2023-11-23T16:46:21.651Z,3.47
2023-11-23T16:48:48.106Z,4.10
2023-11-23T16:51:19.920Z,3.87
2023-11-23T16:53:46.378Z,3.27
2023-11-23T16:56:13.608Z,3.17
2023-11-23T16:58:41.828Z,4.17
2023-11-23T17:01:08.184Z,3.77
2023-11-23T17:03:34.775Z,3.73
2023-11-23T17:06:01.768Z,4.10
2023-11-23T17:08:28.914Z,4.10
2023-11-23T17:10:55.830Z,5.00
2023-11-23T17:13:24.136Z,5.23
2023-11-23T17:15:50.972Z,4.07
2023-11-23T17:18:17.525Z,4.73
2023-11-23T17:20:44.001Z,4.87
2023-11-23T17:23:11.857Z,6.27
2023-11-23T17:25:40.300Z,7.87
2023-11-23T17:28:07.605Z,5.13
2023-11-23T17:30:39.129Z,7.33
2023-11-23T17:33:05.581Z,7.13
2023-11-23T17:35:31.977Z,4.93
2023-11-23T17:37:58.416Z,5.30
2023-11-23T17:40:24.888Z,5.70
2023-11-23T17:42:51.579Z,7.77
2023-11-23T17:45:18.387Z,8.83
2023-11-23T17:47:45.356Z,6.90
2023-11-23T17:50:13.391Z,8.37
2023-11-23T17:52:40.195Z,12.87
2023-11-23T17:55:07.488Z,10.63
2023-11-23T17:57:35.531Z,5.40
2023-11-23T18:00:06.954Z,6.53
2023-11-23T18:02:34.588Z,6.20
2023-11-23T18:05:01.144Z,5.77
2023-11-23T18:07:27.483Z,6.20
2023-11-23T18:09:53.902Z,6.53
2023-11-23T18:12:20.391Z,6.77
2023-11-23T18:14:46.798Z,8.37
2023-11-23T18:17:13.284Z,5.67
2023-11-23T18:19:39.697Z,5.50
2023-11-23T18:22:06.397Z,4.97
2023-11-23T18:24:34.378Z,5.40
2023-11-23T18:27:04.790Z,5.83
2023-11-23T18:29:31.838Z,5.13
2023-11-23T18:31:58.419Z,7.00
2023-11-23T18:34:25.891Z,4.70
2023-11-23T18:36:52.696Z,4.03
2023-11-23T18:39:20.676Z,6.17
2023-11-23T18:41:47.124Z,5.03
2023-11-23T18:44:14.019Z,5.10
2023-11-23T18:46:40.541Z,4.93
2023-11-23T18:49:07.684Z,4.10
2023-11-23T18:51:34.094Z,4.73
2023-11-23T18:54:02.085Z,4.20
2023-11-23T18:56:29.695Z,4.40
2023-11-23T18:58:58.176Z,4.47
2023-11-23T19:01:25.459Z,4.60
2023-11-23T19:03:52.352Z,4.00
2023-11-23T19:06:19.076Z,7.87
2023-11-23T19:08:46.658Z,3.37
2023-11-23T19:11:14.972Z,4.03
2023-11-23T19:13:41.857Z,5.20
2023-11-23T19:16:11.405Z,3.30
2023-11-23T19:18:39.249Z,3.30
2023-11-23T19:21:07.516Z,4.00
2023-11-23T19:23:34.754Z,4.17
2023-11-23T19:26:03.162Z,4.60
2023-11-23T19:28:29.930Z,6.13
2023-11-23T19:31:03.029Z,3.47
2023-11-23T19:33:31.759Z,4.37
2023-11-23T19:35:59.004Z,2.83
2023-11-23T19:38:26.018Z,2.83
2023-11-23T19:40:54.792Z,3.30
2023-11-23T19:43:21.694Z,3.40
2023-11-23T19:45:48.780Z,8.40
2023-11-23T19:48:16.247Z,2.33
2023-11-23T19:50:43.003Z,3.73
2023-11-23T19:53:13.009Z,3.27
2023-11-23T19:55:39.353Z,3.40
2023-11-23T19:58:06.478Z,3.03
2023-11-23T20:00:32.944Z,2.87
2023-11-23T20:03:00.222Z,4.03
2023-11-23T20:05:26.714Z,3.03
2023-11-23T20:07:54.864Z,4.60
2023-11-23T20:10:22.265Z,3.33
2023-11-23T20:12:49.190Z,4.13
2023-11-23T20:15:15.650Z,4.17
2023-11-23T20:17:42.086Z,4.30
2023-11-23T20:20:11.112Z,4.07
2023-11-23T20:22:37.486Z,4.27
2023-11-23T20:25:05.392Z,4.80
2023-11-23T20:27:32.223Z,3.43
2023-11-23T20:29:59.325Z,8.57
2023-11-23T20:32:26.556Z,5.00
2023-11-23T20:34:53.715Z,4.53
2023-11-23T20:37:20.713Z,4.10
2023-11-23T20:39:49.088Z,4.53
2023-11-23T20:42:19.268Z,4.43
2023-11-23T20:44:46.069Z,4.27
2023-11-23T20:47:13.212Z,5.30
2023-11-23T20:49:40.766Z,3.63
2023-11-23T20:52:07.995Z,3.40
2023-11-23T20:54:35.057Z,5.63
2023-11-23T20:57:01.902Z,3.03
2023-11-23T20:59:28.553Z,3.63
2023-11-23T21:01:55.502Z,3.57
2023-11-23T21:04:27.263Z,2.90
2023-11-23T21:07:01.768Z,3.63
2023-11-23T21:09:29.304Z,2.90
2023-11-23T21:11:55.998Z,3.63
2023-11-23T21:14:23.273Z,3.30
2023-11-23T21:16:49.615Z,3.60
2023-11-23T21:19:16.008Z,3.87
2023-11-23T21:21:43.582Z,3.43
2023-11-23T21:24:11.428Z,3.70
2023-11-23T21:26:37.786Z,5.50
2023-11-23T21:29:04.426Z,3.60
2023-11-23T21:31:30.929Z,4.10
2023-11-23T21:33:59.008Z,4.70
2023-11-23T21:36:27.145Z,4.33
2023-11-23T21:38:53.582Z,4.63
2023-11-23T21:41:20.074Z,3.90
2023-11-23T21:43:46.525Z,4.63
2023-11-23T21:46:20.159Z,5.20
2023-11-23T21:48:48.092Z,3.67
2023-11-23T21:51:23.153Z,4.13
2023-11-23T21:53:50.439Z,4.27
2023-11-23T21:56:17.103Z,3.90
2023-11-23T21:58:43.596Z,4.70
2023-11-23T22:01:10.392Z,4.40
2023-11-23T22:03:37.039Z,4.27
2023-11-23T22:06:03.795Z,4.03
2023-11-23T22:08:30.141Z,4.80
2023-11-23T22:10:57.767Z,4.53
2023-11-23T22:13:24.159Z,4.50
2023-11-23T22:15:50.688Z,4.40
2023-11-23T22:18:17.362Z,4.50
2023-11-23T22:20:43.907Z,4.40
2023-11-23T22:23:10.544Z,7.73
2023-11-23T22:25:37.174Z,7.07
2023-11-23T22:28:05.109Z,5.20
2023-11-23T22:30:32.417Z,4.93
2023-11-23T22:33:00.876Z,5.07
2023-11-23T22:35:27.610Z,3.73
2023-11-23T22:37:54.736Z,3.80
2023-11-23T22:40:21.688Z,12.37
2023-11-23T22:42:49.205Z,3.20
2023-11-23T22:45:16.005Z,6.03
2023-11-23T22:47:42.525Z,3.37
2023-11-23T22:50:10.165Z,3.13
2023-11-23T22:52:36.760Z,2.80
2023-11-23T22:55:03.718Z,2.37
2023-11-23T22:57:30.191Z,2.90
2023-11-23T22:59:56.549Z,3.17
2023-11-23T23:02:24.189Z,2.50
2023-11-23T23:04:52.552Z,2.80
2023-11-23T23:07:22.290Z,2.10
2023-11-23T23:09:48.738Z,3.23
2023-11-23T23:12:15.221Z,2.57
2023-11-23T23:14:41.616Z,3.13
2023-11-23T23:17:08.039Z,2.33
2023-11-23T23:19:34.874Z,2.30
2023-11-23T23:22:01.589Z,2.70
2023-11-23T23:24:28.051Z,2.57
2023-11-23T23:26:54.419Z,2.40
2023-11-23T23:29:21.614Z,2.80
2023-11-23T23:31:48.054Z,5.27
2023-11-23T23:34:15.355Z,2.63
2023-11-23T23:36:42.383Z,2.30
2023-11-23T23:39:08.965Z,1.73
2023-11-23T23:41:35.532Z,1.97
2023-11-23T23:44:01.872Z,2.60
2023-11-23T23:46:28.365Z,2.10
2023-11-23T23:48:54.795Z,1.87
2023-11-23T23:51:21.195Z,1.77
2023-11-23T23:53:47.587Z,2.30
2023-11-23T23:56:13.936Z,1.70
2023-11-23T23:58:40.297Z,1.80
